Dades meteomassalio
Diari Summary for Gener 6, 2018 Units:  Metric    English   Both
« Previous Day
Next Day »
Diari Semanal Mensual Anual Personalitzat
  Maxima: Minima: Mijana:
Temperatura: -17.8 °C -18.1 °C -15 °C
Rosada: -17.8 °C -19.3 °C -16.4 °C
Humitat: Humidity % 70 % 84 %
Velocitat del vent: 0 km/h 0 km/h 8.5 km/h
Racha vent: 0 km/h - -
Vent:- - SW
Pressio: 0 hPa 33822.8 hPa -
Pluja: 845.82 mm    
Historical Graphs
 
 
Tabular Data for Gener 6, 2018
Time Temperature Dew Point Pressure Wind Wind Speed Wind Gust Humidity Rainfall Rate (Hourly) solar Conditions
-17.8 °C -17.8 °C 0 hPa Calm     Humidity % 0 mm SolarRadiationWatts/m^2 W/m2 Conditions
00:04 -16.6 °C -18.2 °C 34130.9 hPa Calm     81 % 0 mm 0.0 W/m2 CLR
00:09 -16.6 °C -18.2 °C 34130.9 hPa Calm     81 % 0 mm 0.0 W/m2 CLR
00:14 -16.8 °C -18.4 °C 34130.9 hPa Calm     81 % 0 mm 0.0 W/m2 CLR
00:19 -16.6 °C -18.2 °C 34130.9 hPa Calm     81 % 0 mm 0.0 W/m2 CLR
00:24 -16.6 °C -18.2 °C 34130.9 hPa Calm     81 % 0 mm 0.0 W/m2 CLR
00:25 -16.6 °C -18.2 °C 34120.7 hPa Calm     81 % 0 mm 0.0 W/m2 CLR
00:30 -16.8 °C -18.4 °C 34120.7 hPa Calm     81 % 0 mm 0.0 W/m2 CLR
00:35 -16.6 °C -18.2 °C 34120.7 hPa Calm     81 % 0 mm 0.0 W/m2 CLR
00:36 -16.6 °C -18.2 °C 34120.7 hPa Calm     81 % 0 mm 0.0 W/m2 CLR
00:41 -16.8 °C -18.4 °C 34120.7 hPa Calm     82 % 0 mm 0.0 W/m2 CLR
00:44 -16.8 °C -18.4 °C 34120.7 hPa Calm     82 % 0 mm 0.0 W/m2 CLR
00:46 -16.8 °C -18.4 °C 34120.7 hPa Calm     82 % 0 mm 0.0 W/m2 CLR
00:51 -16.8 °C -18.4 °C 34120.7 hPa Calm     82 % 0 mm 0.0 W/m2 CLR
00:53 -16.8 °C -18.4 °C 34120.7 hPa Calm     82 % 0 mm 0.0 W/m2 CLR
00:58 -16.8 °C -18.4 °C 34120.7 hPa Calm     82 % 0 mm 0.0 W/m2 CLR
00:59 -16.8 °C -18.4 °C 34120.7 hPa Calm     82 % 0 mm 0.0 W/m2 CLR
01:05 -16.8 °C -18.3 °C 34107.2 hPa Calm     83 % 0 mm 0.0 W/m2 CLR
01:11 -16.8 °C -18.3 °C 34107.2 hPa Calm     83 % 0 mm 0.0 W/m2 CLR
01:17 -16.8 °C -18.3 °C 34097 hPa Calm     83 % 0 mm 0.0 W/m2 CLR
01:19 -16.8 °C -18.3 °C 34097 hPa Calm     83 % 0 mm 0.0 W/m2 CLR
01:25 -17.2 °C -18.5 °C 34097 hPa Calm     84 % 0 mm 0.0 W/m2 CLR
01:29 -17.2 °C -18.5 °C 34097 hPa Calm     84 % 0 mm 0.0 W/m2 CLR
01:33 -17.2 °C -18.5 °C 34086.9 hPa Calm     84 % 0 mm 0.0 W/m2 CLR
01:35 -17.2 °C -18.5 °C 34086.9 hPa Calm     84 % 0 mm 0.0 W/m2 CLR
01:40 -17.2 °C -18.5 °C 34086.9 hPa Calm     84 % 0 mm 0.0 W/m2 CLR
01:45 -17.2 °C -18.4 °C 34086.9 hPa Calm     85 % 0 mm 0.0 W/m2 CLR
01:48 -17.2 °C -18.4 °C 34073.3 hPa Calm     85 % 0 mm 0.0 W/m2 CLR
01:53 -17.2 °C -18.4 °C 34073.3 hPa Calm     85 % 0 mm 0.0 W/m2 CLR
02:03 -17.2 °C -18.5 °C 34073.3 hPa Calm     84 % 0 mm 0.0 W/m2 CLR
02:08 -17.2 °C -18.5 °C 34073.3 hPa Calm     84 % 0 mm 0.0 W/m2 CLR
02:12 -17.2 °C -18.5 °C 34073.3 hPa Calm     84 % 0 mm 0.0 W/m2 CLR
02:17 -17.4 °C -18.8 °C 34073.3 hPa Calm     84 % 0 mm 0.0 W/m2 CLR
02:22 -17.4 °C -18.7 °C 34073.3 hPa Calm     85 % 0 mm 0.0 W/m2 CLR
02:24 -17.2 °C -18.4 °C 34073.3 hPa Calm     85 % 0 mm 0.0 W/m2 CLR
02:29 -17.4 °C -18.7 °C 34073.3 hPa Calm     85 % 0 mm 0.0 W/m2 CLR
02:31 -17.4 °C -18.7 °C 34073.3 hPa Calm     85 % 0 mm 0.0 W/m2 CLR
02:34 -17.4 °C -18.7 °C 34073.3 hPa Calm     85 % 0 mm 0.0 W/m2 CLR
02:39 -17.4 °C -18.6 °C 34073.3 hPa Calm     86 % 0 mm 0.0 W/m2 CLR
02:44 -17.4 °C -18.6 °C 34073.3 hPa Calm     86 % 0 mm 0.0 W/m2 CLR
02:45 -17.4 °C -18.6 °C 34073.3 hPa Calm     86 % 0 mm 0.0 W/m2 CLR
02:50 -17.4 °C -18.6 °C 34073.3 hPa Calm     86 % 0 mm 0.0 W/m2 CLR
02:51 -17.4 °C -18.6 °C 34073.3 hPa Calm     86 % 0 mm 0.0 W/m2 CLR
02:56 -17.4 °C -18.6 °C 34073.3 hPa Calm     86 % 0 mm 0.0 W/m2 CLR
03:04 -17.4 °C -18.6 °C 34063.2 hPa Calm     86 % 0 mm 0.0 W/m2 CLR
03:09 -17.4 °C -18.5 °C 34063.2 hPa Calm     87 % 0 mm 0.0 W/m2 CLR
03:14 -17.4 °C -18.6 °C 34049.6 hPa Calm     86 % 0 mm 0.0 W/m2 CLR
03:19 -17.4 °C -18.6 °C 34049.6 hPa Calm     86 % 0 mm 0.0 W/m2 CLR
03:20 -17.4 °C -18.6 °C 34049.6 hPa Calm     86 % 0 mm 0.0 W/m2 CLR
03:25 -17.4 °C -18.5 °C 34049.6 hPa Calm     87 % 0 mm 0.0 W/m2 CLR
03:26 -17.4 °C -18.5 °C 34049.6 hPa Calm     87 % 0 mm 0.0 W/m2 CLR
03:31 -17.4 °C -18.4 °C 34049.6 hPa Calm     88 % 0 mm 0.0 W/m2 CLR
03:36 -17.4 °C -18.6 °C 34039.5 hPa Calm     86 % 0 mm 0.0 W/m2 CLR
03:39 -17.4 °C -18.6 °C 34039.5 hPa Calm     86 % 0 mm 0.0 W/m2 CLR
03:44 -17.4 °C -18.6 °C 34039.5 hPa Calm     86 % 0 mm 0.0 W/m2 CLR
03:49 -17.4 °C -18.4 °C 34039.5 hPa Calm     88 % 0 mm 0.0 W/m2 CLR
03:54 -17.4 °C -18.5 °C 34039.5 hPa Calm     87 % 0 mm 0.0 W/m2 CLR
03:57 -17.4 °C -18.6 °C 34029.3 hPa Calm     86 % 0 mm 0.0 W/m2 CLR
04:03 -17.4 °C -18.6 °C 34029.3 hPa Calm     86 % 0 mm 0.0 W/m2 CLR
04:08 -17.8 °C -18.8 °C 34029.3 hPa Calm     87 % 0 mm 0.0 W/m2 CLR
04:13 -17.8 °C -18.8 °C 34015.8 hPa Calm     87 % 0 mm 0.0 W/m2 CLR
04:18 -17.8 °C -18.8 °C 34015.8 hPa Calm     87 % 0 mm 0.0 W/m2 CLR
04:23 -17.8 °C -18.8 °C 34015.8 hPa Calm     87 % 0 mm 0.0 W/m2 CLR
04:28 -17.8 °C -19 °C 34005.6 hPa Calm     85 % 0 mm 0.0 W/m2 CLR
04:33 -18.1 °C -19.3 °C 34005.6 hPa Calm     85 % 0 mm 0.0 W/m2 CLR
04:38 -17.8 °C -18.9 °C 34005.6 hPa Calm     86 % 0 mm 0.0 W/m2 CLR
04:42 -17.8 °C -18.8 °C 34005.6 hPa Calm     87 % 0 mm 0.0 W/m2 CLR
04:43 -17.8 °C -18.8 °C 34005.6 hPa Calm     88 % 0 mm 0.0 W/m2 CLR
04:48 -17.4 °C -18.6 °C 34005.6 hPa Calm     86 % 0 mm 0.0 W/m2 CLR
04:53 -17.4 °C -18.6 °C 34005.6 hPa Calm     86 % 0 mm 0.0 W/m2 CLR
04:55 -17.4 °C -18.6 °C 34005.6 hPa Calm     86 % 0 mm 0.0 W/m2 CLR
05:00 -17.4 °C -18.7 °C 33992.1 hPa Calm     85 % 0 mm 0.0 W/m2 CLR
05:03 -17.4 °C -18.6 °C 33992.1 hPa Calm     86 % 0 mm 0.0 W/m2 CLR
05:08 -17.8 °C -18.8 °C 34005.6 hPa Calm     87 % 0 mm 0.0 W/m2 CLR
05:13 -17.8 °C -18.9 °C 34005.6 hPa Calm     86 % 0 mm 0.0 W/m2 CLR
05:14 -17.8 °C -18.9 °C 34005.6 hPa Calm     86 % 0 mm 0.0 W/m2 CLR
05:19 -17.8 °C -18.9 °C 33992.1 hPa Calm     86 % 0 mm 0.0 W/m2 CLR
05:24 -17.8 °C -18.9 °C 33992.1 hPa Calm     86 % 0 mm 0.0 W/m2 CLR
05:30 -17.8 °C -18.8 °C 33992.1 hPa Calm     87 % 0 mm 0.0 W/m2 CLR
05:35 -17.4 °C -18.5 °C 33992.1 hPa Calm     87 % 0 mm 0.0 W/m2 CLR
05:36 -17.4 °C -18.5 °C 33992.1 hPa Calm     87 % 0 mm 0.0 W/m2 CLR
05:41 -17.4 °C -18.4 °C 33992.1 hPa Calm     88 % 0 mm 0.0 W/m2 CLR
05:42 -17.4 °C -18.4 °C 33992.1 hPa Calm     88 % 0 mm 0.0 W/m2 CLR
05:47 -17.2 °C -18.2 °C 33992.1 hPa Calm     88 % 0 mm 0.0 W/m2 CLR
05:48 -17.2 °C -18.2 °C 33992.1 hPa Calm     88 % 0 mm 0.0 W/m2 CLR
05:53 -16.8 °C -17.8 °C 33992.1 hPa Calm     88 % 0 mm 0.0 W/m2 CLR
05:55 -16.8 °C -17.8 °C 33992.1 hPa Calm     88 % 0 mm 0.0 W/m2 CLR
06:00 -16.8 °C -17.9 °C 33981.9 hPa Calm     87 % 0 mm 0.0 W/m2 CLR
06:01 -16.8 °C -17.9 °C 33981.9 hPa Calm     87 % 0 mm 0.0 W/m2 CLR
06:02 -16.8 °C -17.9 °C 33981.9 hPa Calm     87 % 0 mm 0.0 W/m2 CLR
06:07 -16.8 °C -17.9 °C 33981.9 hPa Calm     87 % 0 mm 0.0 W/m2 CLR
06:11 -16.8 °C -18 °C 33981.9 hPa Calm     86 % 0 mm 0.0 W/m2 CLR
06:15 -16.8 °C -17.9 °C 33981.9 hPa Calm     87 % 0 mm 0.0 W/m2 CLR
06:20 -16.8 °C -17.8 °C 33981.9 hPa Calm     88 % 0 mm 0.0 W/m2 CLR
06:21 -16.8 °C -17.8 °C 33981.9 hPa Calm     88 % 0 mm 0.0 W/m2 CLR
06:26 -16.8 °C -17.9 °C 33981.9 hPa Calm     87 % 0 mm 0.0 W/m2 CLR
06:31 -16.8 °C -17.9 °C 33981.9 hPa Calm     87 % 0 mm 0.0 W/m2 CLR
06:36 -16.8 °C -18 °C 33971.7 hPa Calm     86 % 0 mm 0.0 W/m2 CLR
06:41 -16.8 °C -17.9 °C 33981.9 hPa Calm     87 % 0 mm 0.0 W/m2 CLR
06:46 -16.8 °C -18 °C 33981.9 hPa Calm     86 % 0 mm 0.0 W/m2 CLR
06:51 -16.8 °C -18 °C 33981.9 hPa Calm     86 % 0 mm 0.0 W/m2 CLR
06:56 -16.8 °C -18.1 °C 33971.7 hPa Calm     85 % 0 mm 0.0 W/m2 CLR
06:59 -16.8 °C -18.1 °C 33981.9 hPa Calm     85 % 0 mm 0.0 W/m2 CLR
07:04 -16.6 °C -17.8 °C 33971.7 hPa Calm     85 % 0 mm 0.0 W/m2 CLR
07:09 -16.8 °C -18.2 °C 33971.7 hPa Calm     84 % 0 mm 0.0 W/m2 CLR
07:13 -16.6 °C -17.9 °C 33981.9 hPa Calm     84 % 0 mm 0.0 W/m2 CLR
07:16 -16.6 °C -17.9 °C 33981.9 hPa Calm     84 % 0 mm 0.0 W/m2 CLR
07:19 -16.8 °C -18.1 °C 33971.7 hPa Calm     85 % 0 mm 0.0 W/m2 CLR
07:25 -16.8 °C -18.2 °C 33971.7 hPa Calm     84 % 0 mm 0.0 W/m2 CLR
07:26 -16.8 °C -18.2 °C 33971.7 hPa Calm     84 % 0 mm 0.0 W/m2 CLR
07:31 -16.8 °C -18.3 °C 33971.7 hPa Calm     83 % 0 mm 0.0 W/m2 CLR
07:37 -16.8 °C -18.4 °C 33971.7 hPa Calm     82 % 0 mm 0.0 W/m2 CLR
07:41 -16.6 °C -18.1 °C 33971.7 hPa Calm     82 % 0 mm 0.0 W/m2 CLR
07:46 -16.6 °C -17.9 °C 33971.7 hPa Calm     84 % 0 mm 0.0 W/m2 CLR
07:47 -16.6 °C -17.9 °C 33971.7 hPa Calm     84 % 0 mm 0.0 W/m2 CLR
07:49 -16.6 °C -17.9 °C 33971.7 hPa Calm     84 % 0 mm 0.0 W/m2 CLR
07:54 -16.6 °C -17.8 °C 33958.2 hPa Calm     85 % 0 mm 0.0 W/m2 CLR
07:56 -16.6 °C -17.9 °C 33958.2 hPa Calm     84 % 0 mm 0.0 W/m2 CLR
08:01 -16.6 °C -17.9 °C 33958.2 hPa Calm     84 % 0 mm 0.0 W/m2 CLR
08:02 -16.6 °C -17.9 °C 33958.2 hPa Calm     84 % 0 mm 0.0 W/m2 CLR
08:04 -16.6 °C -17.9 °C 33971.7 hPa Calm     84 % 0 mm 0.0 W/m2 CLR
08:08 -16.6 °C -17.9 °C 33958.2 hPa Calm     84 % 0 mm 0.0 W/m2 CLR
08:13 -16.6 °C -17.9 °C 33971.7 hPa Calm     84 % 0 mm 0.0 W/m2 CLR
08:18 -16.6 °C -17.9 °C 33971.7 hPa Calm     84 % 0 mm 0.0 W/m2 OVC
08:21 -16.2 °C -17.6 °C 33971.7 hPa Calm     84 % 0 mm 0.0 W/m2 OVC
08:26 -16.2 °C -17.6 °C 33971.7 hPa Calm     84 % 0 mm 9.0 W/m2 BKN
08:32 -16.2 °C -17.7 °C 33981.9 hPa Calm     83 % 0 mm 5.0 W/m2 OVC
08:34 -16.2 °C -17.7 °C 33981.9 hPa Calm     83 % 0 mm 5.0 W/m2 OVC
08:39 -16.2 °C -17.7 °C 33981.9 hPa Calm     83 % 0 mm 9.0 W/m2 BKN
08:44 -16.2 °C -17.7 °C 33981.9 hPa Calm     83 % 0 mm 11.0 W/m2 BKN
08:45 -16.2 °C -17.7 °C 33981.9 hPa Calm     83 % 0 mm 11.0 W/m2 BKN
08:50 -15.9 °C -17.4 °C 33981.9 hPa Calm     83 % 0 mm 14.0 W/m2 BKN
08:51 -15.9 °C -17.4 °C 33981.9 hPa Calm     83 % 0 mm 14.0 W/m2 BKN
08:56 -15.9 °C -17.4 °C 33981.9 hPa Calm     82 % 0 mm 19.0 W/m2 BKN
09:01 -15.9 °C -17.4 °C 33981.9 hPa Calm     82 % 0 mm 21.0 W/m2 BKN
09:06 -15.9 °C -17.4 °C 33992.1 hPa Calm     82 % 0 mm 21.0 W/m2 BKN
09:11 -15.9 °C -17.4 °C 33992.1 hPa Calm     82 % 0 mm 25.0 W/m2 BKN
09:13 -15.9 °C -17.4 °C 33992.1 hPa Calm     83 % 0 mm 28.0 W/m2 BKN
09:18 -15.9 °C -17.4 °C 33992.1 hPa Calm     83 % 0 mm 35.0 W/m2 BKN
09:20 -15.9 °C -17.4 °C 33992.1 hPa Calm     83 % 0 mm 39.0 W/m2 BKN
09:25 -15.6 °C -17 °C 33992.1 hPa Calm     84 % 0 mm 49.0 W/m2 BKN
09:28 -15.6 °C -17 °C 33992.1 hPa Calm     84 % 0 mm 58.0 W/m2 BKN
09:33 -15.6 °C -16.9 °C 34005.6 hPa Calm     85 % 0 mm 77.0 W/m2 SCT
09:40 -15.3 °C -16.6 °C 34005.6 hPa Calm     85 % 0 mm 100.0 W/m2 FEW
09:45 -15.3 °C -16.6 °C 34005.6 hPa Calm     85 % 0 mm 91.0 W/m2 CLR
09:50 -15 °C -16.3 °C 34005.6 hPa Calm     85 % 0 mm 67.0 W/m2 CLR
09:55 -14.7 °C -16 °C 34005.6 hPa Calm     85 % 0 mm 56.0 W/m2 FEW
09:59 -14.7 °C -16 °C 34005.6 hPa Calm     85 % 0 mm 60.0 W/m2 SCT
10:01 -14.7 °C -16 °C 34005.6 hPa Calm     85 % 0 mm 67.0 W/m2 SCT
10:06 -14.7 °C -16 °C 34005.6 hPa Calm     85 % 0 mm 76.0 W/m2 FEW
10:11 -14.7 °C -16 °C 34005.6 hPa Calm     85 % 0 mm 70.0 W/m2 FEW
10:16 -14.7 °C -16 °C 34005.6 hPa Calm     85 % 0 mm 84.0 W/m2 FEW
10:20 -14.7 °C -16 °C 34005.6 hPa Calm     85 % 0 mm 88.0 W/m2 FEW
10:25 -14.7 °C -16 °C 34005.6 hPa Calm     85 % 0 mm 93.0 W/m2 CLR
10:30 -14.7 °C -15.9 °C 34005.6 hPa Calm     86 % 0 mm 183.0 W/m2 CLR
10:32 -14.7 °C -15.9 °C 34015.8 hPa Calm     86 % 0 mm 290.0 W/m2 CLR
10:37 -14.4 °C -15.7 °C 34015.8 hPa Calm     85 % 0 mm 223.0 W/m2 CLR
10:39 -14.4 °C -15.7 °C 34015.8 hPa NNW 20.8 km/h 20.8 km/h 85 % 0 mm 350.0 W/m2 CLR
10:44 -14.1 °C -15.4 °C 34015.8 hPa NNW 15 km/h 15 km/h 84 % 0 mm 366.0 W/m2 CLR
10:49 -14.1 °C -15.6 °C 34015.8 hPa North 20.9 km/h 20.9 km/h 83 % 0 mm 392.0 W/m2 CLR
10:54 -13.8 °C -15.4 °C 34015.8 hPa North 15 km/h 15 km/h 82 % 0 mm 429.0 W/m2 CLR
10:58 -13.4 °C -15.2 °C 34015.8 hPa NNW 20.9 km/h 20.9 km/h 81 % 0 mm 406.0 W/m2 CLR
11:03 -13.4 °C -15.2 °C 34015.8 hPa Calm     80 % 0 mm 424.0 W/m2 CLR
11:08 -13.4 °C -15.2 °C 34015.8 hPa Calm     80 % 0 mm 283.0 W/m2 CLR
11:13 -13.2 °C -15.1 °C 34029.3 hPa Calm     79 % 0 mm 388.0 W/m2 CLR
11:19 -13.2 °C -15.2 °C 34029.3 hPa Calm     78 % 0 mm 403.0 W/m2 CLR
11:20 -13.2 °C -15.2 °C 34029.3 hPa North 5.1 km/h 5.1 km/h 78 % 0 mm 397.0 W/m2 CLR
11:25 -12.8 °C -14.9 °C 34015.8 hPa NNW 6 km/h 6 km/h 77 % 0 mm 262.0 W/m2 CLR
11:26 -12.8 °C -14.9 °C 34029.3 hPa NNW 9 km/h 9 km/h 77 % 0 mm 229.0 W/m2 CLR
11:31 -12.8 °C -14.9 °C 34029.3 hPa NW 20.9 km/h 20.9 km/h 77 % 0 mm 213.0 W/m2 CLR
11:36 -13.2 °C -15.2 °C 34029.3 hPa NW 20.9 km/h 20.9 km/h 77 % 0 mm 274.0 W/m2 CLR
11:44 -13.2 °C -15.2 °C 34029.3 hPa NNW 23.8 km/h 23.8 km/h 78 % 0 mm 373.0 W/m2 CLR
11:48 -13.2 °C -15.2 °C 34029.3 hPa NNW 29.8 km/h 29.8 km/h 77 % 0 mm 373.0 W/m2 CLR
11:53 -13.2 °C -15.2 °C 34029.3 hPa NNW 20.9 km/h 20.9 km/h 77 % 0 mm 362.0 W/m2 CLR
11:58 -13.2 °C -15.2 °C 34015.8 hPa NW 9 km/h   77 % 0 mm 367.0 W/m2 CLR
12:06 -13.2 °C -15.4 °C 34005.6 hPa Calm     76 % 0 mm 475.0 W/m2 CLR
12:07 -13.2 °C -15.4 °C 34005.6 hPa Calm     76 % 0 mm 475.0 W/m2 CLR
12:12 -12.8 °C -15.1 °C 34005.6 hPa Calm     76 % 0 mm 397.0 W/m2 CLR
12:15 -12.8 °C -15.2 °C 33992.1 hPa Calm     75 % 0 mm 350.0 W/m2 CLR
12:20 -12.8 °C -15.2 °C 33992.1 hPa Calm     75 % 0 mm 381.0 W/m2 CLR
12:25 -12.8 °C -15.3 °C 33992.1 hPa Calm     74 % 0 mm 343.0 W/m2 CLR
12:30 -12.8 °C -15.3 °C 33992.1 hPa Calm     74 % 0 mm 357.0 W/m2 CLR
12:35 -12.8 °C -15.3 °C 33992.1 hPa Calm     74 % 0 mm 341.0 W/m2 CLR
12:40 -12.6 °C -15.1 °C 33992.1 hPa Calm     73 % 0 mm 339.0 W/m2 CLR
12:41 -12.6 °C -15.1 °C 33992.1 hPa Calm     73 % 0 mm 315.0 W/m2 CLR
12:46 -12.6 °C -15.1 °C 33981.9 hPa Calm     73 % 0 mm 287.0 W/m2 CLR
12:49 -12.6 °C -15.1 °C 33981.9 hPa Calm     73 % 0 mm 241.0 W/m2 CLR
12:54 -12.6 °C -15.2 °C 33981.9 hPa Calm     72 % 0 mm 127.0 W/m2 CLR
12:57 -12.6 °C -15.1 °C 33981.9 hPa Calm     73 % 0 mm 137.0 W/m2 CLR
13:02 -12.6 °C -15.2 °C 33981.9 hPa Calm     72 % 0 mm 135.0 W/m2 CLR
13:05 -12.6 °C -15.2 °C 33981.9 hPa Calm     72 % 0 mm 132.0 W/m2 CLR
13:19 -12.6 °C -14.9 °C 33971.7 hPa Calm     74 % 0 mm 360.0 W/m2 CLR
13:21 -12.6 °C -14.9 °C 33971.7 hPa Calm     74 % 0 mm 411.0 W/m2 CLR
13:26 -12.2 °C -14.8 °C 33971.7 hPa Calm     73 % 0 mm 427.0 W/m2 CLR
13:27 -12.2 °C -14.8 °C 33971.7 hPa Calm     73 % 0 mm 427.0 W/m2 CLR
13:32 -12.2 °C -14.9 °C 33958.2 hPa Calm     72 % 0 mm 418.0 W/m2 CLR
13:37 -12.2 °C -15.1 °C 33958.2 hPa Calm     70 % 0 mm 287.0 W/m2 CLR
13:42 -12.2 °C -15 °C 33958.2 hPa Calm     71 % 0 mm 346.0 W/m2 CLR
13:47 -12.2 °C -15 °C 33948 hPa NE 3.1 km/h 3.1 km/h 71 % 0 mm 417.0 W/m2 CLR
13:52 -12.2 °C -15.1 °C 33937.9 hPa East 23.3 km/h 23.3 km/h 70 % 0 mm 417.0 W/m2 CLR
13:57 -12.2 °C -15.1 °C 33924.3 hPa East 29.8 km/h 29.8 km/h 70 % 0 mm 446.0 W/m2 CLR
14:02 -12.2 °C -15.1 °C 33924.3 hPa East 29.8 km/h 29.8 km/h 70 % 0 mm 406.0 W/m2 CLR
14:04 -12.2 °C -15.1 °C 33924.3 hPa ENE 26.9 km/h 26.9 km/h 70 % 0 mm 392.0 W/m2 CLR
14:06 -12.2 °C -15 °C 33924.3 hPa ENE 29.8 km/h 29.8 km/h 71 % 0 mm 394.0 W/m2 CLR
14:11 -12.2 °C -15 °C 33924.3 hPa ENE 29.8 km/h 29.8 km/h 71 % 0 mm 406.0 W/m2 CLR
14:16 -12.2 °C -15.1 °C 33924.3 hPa ENE 29.8 km/h 29.8 km/h 70 % 0 mm 371.0 W/m2 CLR
14:18 -12.2 °C -15.1 °C 33924.3 hPa ENE 26.9 km/h 26.9 km/h 70 % 0 mm 392.0 W/m2 CLR
14:23 -12.2 °C -15 °C 33924.3 hPa ENE 20.8 km/h 20.8 km/h 71 % 0 mm 162.0 W/m2 CLR
14:27 -12.2 °C -15 °C 33924.3 hPa ENE 20.9 km/h 20.9 km/h 71 % 0 mm 190.0 W/m2 CLR
14:32 -12.2 °C -14.9 °C 33924.3 hPa East 15.6 km/h 15.6 km/h 72 % 0 mm 162.0 W/m2 CLR
14:33 -12.2 °C -14.9 °C 33924.3 hPa ENE 20.9 km/h 20.9 km/h 72 % 0 mm 167.0 W/m2 CLR
14:38 -12.2 °C -14.9 °C 33924.3 hPa ENE 20.9 km/h 20.9 km/h 72 % 0 mm 146.0 W/m2 CLR
14:43 -11.9 °C -14.6 °C 33914.2 hPa Calm     72 % 0 mm 359.0 W/m2 CLR
14:53 -11.9 °C -14.7 °C 33914.2 hPa ENE 15 km/h 15 km/h 71 % 0 mm 174.0 W/m2 CLR
14:58 -11.9 °C -14.6 °C 33914.2 hPa ENE 26.9 km/h 26.9 km/h 72 % 0 mm 176.0 W/m2 CLR
15:03 -11.9 °C -14.6 °C 33900.6 hPa East 23.8 km/h 23.8 km/h 72 % 0 mm 190.0 W/m2 CLR
15:06 -11.9 °C -14.6 °C 33900.6 hPa ENE 26.9 km/h 26.9 km/h 72 % 0 mm 192.0 W/m2 CLR
15:11 -11.9 °C -14.6 °C 33890.5 hPa East 23.8 km/h 23.8 km/h 72 % 0 mm 209.0 W/m2 CLR
15:16 -11.6 °C -14.3 °C 33890.5 hPa East 3.1 km/h 3.1 km/h 72 % 0 mm 188.0 W/m2 CLR
15:21 -11.6 °C -14.3 °C 33890.5 hPa East 6 km/h 6 km/h 72 % 0 mm 181.0 W/m2 CLR
15:26 -11.6 °C -14.3 °C 33890.5 hPa East 6 km/h 6 km/h 72 % 0 mm 171.0 W/m2 CLR
15:36 -11.6 °C -14.3 °C 33890.5 hPa NE 23.8 km/h 23.8 km/h 72 % 0 mm 118.0 W/m2 CLR
15:42 -11.6 °C -14.3 °C 33890.5 hPa ENE 17.9 km/h   72 % 0 mm 121.0 W/m2 CLR
15:45 -11.6 °C -14.3 °C 33880.3 hPa ENE 23.3 km/h 23.3 km/h 72 % 0 mm 149.0 W/m2 CLR
15:48 -11.6 °C -14.3 °C 33880.3 hPa ENE 9 km/h   72 % 0 mm 153.0 W/m2 CLR
15:53 -11.6 °C -14.3 °C 33880.3 hPa NE 23.8 km/h 23.8 km/h 72 % 0 mm 125.0 W/m2 CLR
15:58 -11.9 °C -14.5 °C 33880.3 hPa Calm     73 % 0 mm 105.0 W/m2 CLR
15:59 -11.9 °C -14.5 °C 33880.3 hPa Calm     73 % 0 mm 105.0 W/m2 CLR
16:03 -11.9 °C -14.5 °C 33880.3 hPa Calm     73 % 0 mm 70.0 W/m2 CLR
16:08 -11.9 °C -14.5 °C 33880.3 hPa ENE 23.8 km/h 23.8 km/h 73 % 0 mm 58.0 W/m2 FEW
16:10 -11.9 °C -14.5 °C 33880.3 hPa ENE 9 km/h   73 % 0 mm 46.0 W/m2 FEW
16:14 -11.9 °C -14.3 °C 33880.3 hPa Calm     75 % 0 mm 33.0 W/m2 SCT
16:19 -12.2 °C -14.3 °C 33866.8 hPa ENE 15.6 km/h 15.6 km/h 77 % 0 mm 35.0 W/m2 BKN
16:24 -12.2 °C -14.1 °C 33866.8 hPa NE 11.9 km/h 11.9 km/h 80 % 0 mm 19.0 W/m2 BKN
16:27 -12.2 °C -14.1 °C 33866.8 hPa Calm     80 % 0 mm 14.0 W/m2 BKN
16:28 -12.2 °C -13.9 °C 33866.8 hPa Calm     81 % 0 mm 14.0 W/m2 BKN
16:33 -12.6 °C -14.1 °C 33856.6 hPa Calm     83 % 7.62 mm 18.0 W/m2 RA
16:36 -12.6 °C -13.9 °C 33856.6 hPa Calm     84 % 7.62 mm 11.0 W/m2 BKN
16:42 -12.6 °C -13.8 °C 33856.6 hPa Calm     85 % 33.02 mm 7.0 W/m2 RA
16:45 -12.8 °C -14.1 °C 33856.6 hPa Calm     86 % 38.1 mm 7.0 W/m2 RA
16:51 -12.8 °C -13.9 °C 33856.6 hPa NNW 20.9 km/h 20.9 km/h 88 % 45.72 mm 5.0 W/m2 RA
16:55 -12.8 °C -13.9 °C 33856.6 hPa WNW 17.9 km/h 17.9 km/h 88 % 50.8 mm 0.0 W/m2 RA
17:00 -12.6 °C -13.5 °C 33843.1 hPa Calm     89 % 58.42 mm 5.0 W/m2 RA
17:05 -12.6 °C -13.5 °C 33843.1 hPa North 23.8 km/h 23.8 km/h 89 % 58.42 mm 0.0 W/m2
17:10 -12.6 °C -13.5 °C 33856.6 hPa North 20.9 km/h 20.9 km/h 89 % 58.42 mm 0.0 W/m2 CLR
17:15 -12.6 °C -13.5 °C 33843.1 hPa North 23.3 km/h 23.3 km/h 89 % 58.42 mm 0.0 W/m2 OVC
17:20 -12.8 °C -13.9 °C 33843.1 hPa NNW 17.9 km/h 17.9 km/h 88 % 58.42 mm 0.0 W/m2 OVC
17:23 -12.8 °C -13.8 °C 33843.1 hPa NNW 23.8 km/h 23.8 km/h 89 % 58.42 mm 0.0 W/m2 RA
17:28 -13.2 °C -14.1 °C 33856.6 hPa North 29.8 km/h 29.8 km/h 89 % 63.5 mm 0.0 W/m2 RA
17:30 -13.2 °C -14.1 °C 33856.6 hPa North 26.9 km/h 26.9 km/h 89 % 71.12 mm 0.0 W/m2 RA
17:35 -13.2 °C -14.1 °C 33866.8 hPa Calm     89 % 83.82 mm 0.0 W/m2 RA
17:40 -13.2 °C -14 °C 33856.6 hPa Calm     90 % 91.44 mm 0.0 W/m2 RA
17:45 -13.4 °C -14.3 °C 33866.8 hPa ENE 9 km/h   90 % 83.82 mm 0.0 W/m2 RA
17:50 -13.4 °C -14.3 °C 33856.6 hPa North 20.8 km/h 20.8 km/h 90 % 83.82 mm 0.0 W/m2 RA
17:55 -13.4 °C -14.3 °C 33832.9 hPa North 29.8 km/h 29.8 km/h 90 % 104.14 mm 0.0 W/m2 RA
17:58 -13.4 °C -14.3 °C 33843.1 hPa NW 41.7 km/h 41.7 km/h 90 % 104.14 mm 0.0 W/m2 RA
18:03 -13.4 °C -14.2 °C 33843.1 hPa WSW 56.6 km/h 56.6 km/h 91 % 109.22 mm 0.0 W/m2 RA
18:07 -13.4 °C -14.2 °C 33843.1 hPa WNW 20.9 km/h 20.9 km/h 91 % 134.62 mm 0.0 W/m2 RA
18:12 -13.4 °C -14.2 °C 33843.1 hPa West 20.9 km/h 20.9 km/h 91 % 180.34 mm 0.0 W/m2 RA
18:14 -13.8 °C -14.6 °C 33843.1 hPa NW 23.8 km/h 23.8 km/h 91 % 193.04 mm 0.0 W/m2 RA
18:19 -13.8 °C -14.6 °C 33843.1 hPa WNW 23.8 km/h 23.8 km/h 91 % 213.36 mm 0.0 W/m2 RA
18:24 -13.8 °C -14.6 °C 33843.1 hPa NW 26.9 km/h 26.9 km/h 91 % 226.06 mm 0.0 W/m2 RA
18:29 -13.8 °C -14.6 °C 33843.1 hPa West 29.8 km/h 29.8 km/h 91 % 218.44 mm 0.0 W/m2 RA
18:34 -13.8 °C -14.6 °C 33843.1 hPa NW 26.9 km/h 26.9 km/h 91 % 218.44 mm 0.0 W/m2 RA
18:36 -13.8 °C -14.6 °C 33832.9 hPa NNW 29.8 km/h 29.8 km/h 91 % 213.36 mm 0.0 W/m2 RA
18:41 -13.8 °C -14.6 °C 33832.9 hPa NW 29.8 km/h 29.8 km/h 91 % 193.04 mm 0.0 W/m2 RA
18:43 -13.8 °C -14.6 °C 33832.9 hPa NW 15 km/h 15 km/h 91 % 193.04 mm 0.0 W/m2 RA
18:44 -13.8 °C -14.6 °C 33832.9 hPa WNW 20.8 km/h 20.8 km/h 91 % 187.96 mm 0.0 W/m2 RA
18:49 -13.8 °C -14.6 °C 33843.1 hPa WNW 29.8 km/h 29.8 km/h 91 % 200.66 mm 0.0 W/m2 RA
18:54 -14.1 °C -14.8 °C 33832.9 hPa NNW 41.7 km/h 41.7 km/h 91 % 200.66 mm 0.0 W/m2 RA
18:55 -14.1 °C -14.8 °C 33832.9 hPa NNW 32.8 km/h 32.8 km/h 91 % 200.66 mm 0.0 W/m2 RA
19:00 -14.1 °C -14.8 °C 33822.8 hPa NNW 35.7 km/h 35.7 km/h 91 % 200.66 mm 0.0 W/m2 RA
19:05 -14.1 °C -14.8 °C 33832.9 hPa West 38.8 km/h 38.8 km/h 91 % 187.96 mm 0.0 W/m2 RA
19:10 -14.1 °C -14.8 °C 33843.1 hPa NW 29.8 km/h 29.8 km/h 91 % 193.04 mm 0.0 W/m2 RA
19:13 -14.4 °C -15.1 °C 33843.1 hPa NNW 38.8 km/h 38.8 km/h 92 % 180.34 mm 0.0 W/m2 RA
19:15 -14.4 °C -15.1 °C 33843.1 hPa WNW 35.7 km/h 35.7 km/h 92 % 180.34 mm 0.0 W/m2 RA
19:20 -14.4 °C -15.1 °C 33843.1 hPa NNW 25.9 km/h 25.9 km/h 91 % 218.44 mm 0.0 W/m2 RA
19:26 -14.4 °C -15.1 °C 33843.1 hPa WNW 32.8 km/h 32.8 km/h 92 % 218.44 mm 0.0 W/m2 RA
19:31 -14.4 °C -15.1 °C 33856.6 hPa WNW 32.8 km/h 32.8 km/h 92 % 271.78 mm 0.0 W/m2 RA
19:34 -14.4 °C -15.1 °C 33856.6 hPa West 35.7 km/h 35.7 km/h 91 % 289.56 mm 0.0 W/m2 RA
19:39 -14.7 °C -15.4 °C 33843.1 hPa WNW 35.7 km/h 35.7 km/h 92 % 302.26 mm 0.0 W/m2 RA
19:44 -14.7 °C -15.4 °C 33832.9 hPa WNW 29.8 km/h 29.8 km/h 92 % 297.18 mm 0.0 W/m2 RA
19:49 -14.7 °C -15.4 °C 33832.9 hPa WNW 35.7 km/h 35.7 km/h 92 % 297.18 mm 0.0 W/m2 RA
19:51 -14.7 °C -15.4 °C 33832.9 hPa NW 44.7 km/h 44.7 km/h 92 % 289.56 mm 0.0 W/m2 RA
19:56 -14.7 °C -15.4 °C 33832.9 hPa NW 29.8 km/h 29.8 km/h 92 % 289.56 mm 0.0 W/m2 RA
20:01 -14.7 °C -15.4 °C 33832.9 hPa NNW 26.9 km/h 26.9 km/h 92 % 297.18 mm 0.0 W/m2 RA
20:06 -14.7 °C -15.4 °C 33832.9 hPa NNW 29.8 km/h 29.8 km/h 92 % 276.86 mm 0.0 W/m2 RA
20:08 -14.7 °C -15.4 °C 33822.8 hPa North 29.8 km/h 29.8 km/h 92 % 271.78 mm 0.0 W/m2 RA
20:13 -14.7 °C -15.4 °C 33832.9 hPa North 20.9 km/h 20.9 km/h 92 % 251.46 mm 0.0 W/m2 RA
20:14 -14.7 °C -15.4 °C 33832.9 hPa NNW 29.8 km/h 29.8 km/h 92 % 251.46 mm 0.0 W/m2 RA
20:19 -14.7 °C -15.4 °C 33843.1 hPa NW 26.9 km/h 26.9 km/h 92 % 200.66 mm 0.0 W/m2
20:24 -14.7 °C -15.4 °C 33832.9 hPa WNW 29.8 km/h 29.8 km/h 92 % 193.04 mm 0.0 W/m2 RA
20:29 -14.7 °C -15.4 °C 33843.1 hPa WNW 26.9 km/h 26.9 km/h 92 % 200.66 mm 0.0 W/m2 RA
20:34 -14.7 °C -15.4 °C 33856.6 hPa WSW 23.8 km/h 23.8 km/h 92 % 154.94 mm 0.0 W/m2 RA
20:37 -14.7 °C -15.4 °C 33832.9 hPa NW 20.8 km/h 20.8 km/h 92 % 147.32 mm 0.0 W/m2 RA
20:42 -14.7 °C -15.4 °C 33832.9 hPa NNW 20.9 km/h 20.9 km/h 92 % 142.24 mm 0.0 W/m2 RA
20:46 -14.7 °C -15.4 °C 33832.9 hPa Calm     92 % 134.62 mm 0.0 W/m2 CLR
20:52 -14.7 °C -15.4 °C 33832.9 hPa North 29.8 km/h 29.8 km/h 92 % 129.54 mm 0.0 W/m2 CLR
20:56 -14.7 °C -15.4 °C 33832.9 hPa WNW 17.9 km/h 17.9 km/h 92 % 109.22 mm 0.0 W/m2 CLR
21:01 -14.7 °C -15.4 °C 33856.6 hPa West 29.8 km/h 29.8 km/h 92 % 109.22 mm 0.0 W/m2 CLR
21:03 -14.7 °C -15.4 °C 33856.6 hPa West 32.8 km/h 32.8 km/h 92 % 104.14 mm 0.0 W/m2 CLR
21:08 -14.7 °C -15.4 °C 33856.6 hPa WNW 41.7 km/h 41.7 km/h 92 % 91.44 mm 0.0 W/m2 RA
21:09 -14.7 °C -15.4 °C 33843.1 hPa NW 29.8 km/h 29.8 km/h 92 % 91.44 mm 0.0 W/m2 RA
21:13 -14.7 °C -15.4 °C 33843.1 hPa NNW 31.1 km/h 31.1 km/h 92 % 96.52 mm 0.0 W/m2 RA
21:18 -14.7 °C -15.4 °C 33843.1 hPa NNW 29.8 km/h 29.8 km/h 92 % 91.44 mm 0.0 W/m2
21:20 -14.7 °C -15.4 °C 33832.9 hPa North 31.1 km/h 31.1 km/h 92 % 91.44 mm 0.0 W/m2 CLR
21:24 -14.7 °C -15.4 °C 33832.9 hPa NNE 23.8 km/h 23.8 km/h 92 % 83.82 mm 0.0 W/m2 CLR
21:29 -14.7 °C -15.4 °C 33822.8 hPa NW 29.8 km/h 29.8 km/h 92 % 45.72 mm 0.0 W/m2 CLR
21:31 -14.7 °C -15.4 °C 33822.8 hPa NW 26.9 km/h 26.9 km/h 92 % 38.1 mm 0.0 W/m2 CLR
21:36 -14.7 °C -15.4 °C 33843.1 hPa NNE 11.9 km/h 11.9 km/h 92 % 25.4 mm 0.0 W/m2 CLR
21:38 -14.7 °C -15.4 °C 33843.1 hPa North 6 km/h   92 % 25.4 mm 0.0 W/m2 CLR
21:43 -14.7 °C -15.4 °C 33856.6 hPa Calm     92 % 20.32 mm 0.0 W/m2 CLR
21:46 -14.7 °C -15.4 °C 33866.8 hPa Calm     92 % 20.32 mm 0.0 W/m2 CLR
21:50 -14.7 °C -15.4 °C 33866.8 hPa Calm     92 % 20.32 mm 0.0 W/m2 CLR
21:54 -14.7 °C -15.4 °C 33890.5 hPa West 47.6 km/h 47.6 km/h 92 % 25.4 mm 0.0 W/m2 RA
21:59 -15 °C -15.7 °C 33890.5 hPa West 11.9 km/h 11.9 km/h 92 % 38.1 mm 0.0 W/m2 RA
22:05 -15 °C -15.7 °C 33890.5 hPa West 28.5 km/h 28.5 km/h 92 % 58.42 mm 0.0 W/m2 RA
22:07 -15 °C -15.7 °C 33890.5 hPa West 29.8 km/h 29.8 km/h 92 % 58.42 mm 0.0 W/m2 RA
22:12 -15 °C -15.7 °C 33900.6 hPa West 41.7 km/h 41.7 km/h 92 % 45.72 mm 0.0 W/m2
22:15 -15 °C -15.7 °C 33890.5 hPa WNW 17.9 km/h   92 % 50.8 mm 0.0 W/m2 RA
22:20 -15 °C -15.7 °C 33890.5 hPa Calm     92 % 58.42 mm 0.0 W/m2 RA
22:23 -15 °C -15.7 °C 33880.3 hPa NNW 20.9 km/h 20.9 km/h 92 % 58.42 mm 0.0 W/m2 RA
22:28 -15 °C -15.7 °C 33890.5 hPa Calm     92 % 63.5 mm 0.0 W/m2 RA
22:33 -15 °C -15.7 °C 33880.3 hPa Calm     92 % 63.5 mm 0.0 W/m2 CLR
22:34 -15 °C -15.7 °C 33890.5 hPa Calm     92 % 63.5 mm 0.0 W/m2 CLR
22:39 -15 °C -15.7 °C 33880.3 hPa Calm     92 % 63.5 mm 0.0 W/m2 CLR
22:43 -15 °C -15.7 °C 33880.3 hPa Calm     92 % 63.5 mm 0.0 W/m2 CLR
22:48 -15 °C -15.7 °C 33890.5 hPa Calm     92 % 63.5 mm 0.0 W/m2 CLR
22:53 -15 °C -15.7 °C 33880.3 hPa Calm     92 % 58.42 mm 0.0 W/m2 CLR
22:58 -15 °C -15.7 °C 33880.3 hPa Calm     92 % 50.8 mm 0.0 W/m2 CLR
23:00 -15 °C -15.7 °C 33880.3 hPa Calm     92 % 45.72 mm 0.0 W/m2 CLR
23:05 -15 °C -15.7 °C 33890.5 hPa Calm     92 % 25.4 mm 0.0 W/m2 CLR
23:10 -15 °C -15.7 °C 33890.5 hPa Calm     92 % 20.32 mm 0.0 W/m2 CLR
23:11 -15 °C -15.7 °C 33890.5 hPa Calm     92 % 25.4 mm 0.0 W/m2 RA
23:16 -15 °C -15.7 °C 33880.3 hPa Calm     92 % 20.32 mm 0.0 W/m2
23:22 -15 °C -15.7 °C 33880.3 hPa Calm     92 % 12.7 mm 0.0 W/m2 CLR
23:23 -15 °C -15.7 °C 33880.3 hPa Calm     92 % 12.7 mm 0.0 W/m2 CLR
23:28 -15 °C -15.7 °C 33890.5 hPa Calm     92 % 7.62 mm 0.0 W/m2 CLR
23:33 -15 °C -15.7 °C 33890.5 hPa Calm     92 % 7.62 mm 0.0 W/m2 CLR
23:38 -15 °C -15.7 °C 33880.3 hPa Calm     92 % 7.62 mm 0.0 W/m2 CLR
23:41 -15 °C -15.6 °C 33880.3 hPa Calm     93 % 7.62 mm 0.0 W/m2 CLR
23:46 -15 °C -15.7 °C 33866.8 hPa Calm     92 % 7.62 mm 0.0 W/m2 CLR
23:51 -15.3 °C -15.9 °C 33866.8 hPa Calm     93 % 7.62 mm 0.0 W/m2 CLR
23:52 -15.3 °C -15.9 °C 33866.8 hPa Calm     93 % 7.62 mm 0.0 W/m2 CLR
23:57 -15 °C -15.7 °C 33866.8 hPa Calm     92 % 7.62 mm 0.0 W/m2 CLR
Lo Temps de Massalio
Compliments of Weather Underground - 1.25 mb